sensor_id;sensor_type;location;lat;lon;timestamp;P1;durP1;ratioP1;P2;durP2;ratioP2
13611;SDS011;6877;51.436;6.774;2024-01-15T00:01:46;41.63;;;19.13;;
13611;SDS011;6877;51.436;6.774;2024-01-15T00:04:17;51.72;;;19.23;;
13611;SDS011;6877;51.436;6.774;2024-01-15T00:06:43;51.13;;;20.92;;
13611;SDS011;6877;51.436;6.774;2024-01-15T00:09:10;44.30;;;20.25;;
13611;SDS011;6877;51.436;6.774;2024-01-15T00:11:36;46.25;;;18.98;;
13611;SDS011;6877;51.436;6.774;2024-01-15T00:14:08;43.17;;;17.50;;
13611;SDS011;6877;51.436;6.774;2024-01-15T00:16:34;39.88;;;19.23;;
13611;SDS011;6877;51.436;6.774;2024-01-15T00:19:01;41.03;;;18.27;;
13611;SDS011;6877;51.436;6.774;2024-01-15T00:21:27;51.65;;;19.88;;
13611;SDS011;6877;51.436;6.774;2024-01-15T00:23:54;45.10;;;20.45;;
13611;SDS011;6877;51.436;6.774;2024-01-15T00:26:21;38.58;;;17.90;;
13611;SDS011;6877;51.436;6.774;2024-01-15T00:28:47;42.92;;;18.27;;
13611;SDS011;6877;51.436;6.774;2024-01-15T00:31:15;45.63;;;21.27;;
13611;SDS011;6877;51.436;6.774;2024-01-15T00:33:43;41.58;;;16.65;;
13611;SDS011;6877;51.436;6.774;2024-01-15T00:36:09;40.33;;;16.38;;
13611;SDS011;6877;51.436;6.774;2024-01-15T00:38:36;37.55;;;19.40;;
13611;SDS011;6877;51.436;6.774;2024-01-15T00:41:02;45.58;;;17.83;;
13611;SDS011;6877;51.436;6.774;2024-01-15T00:43:29;43.20;;;19.05;;
13611;SDS011;6877;51.436;6.774;2024-01-15T00:45:55;46.33;;;18.83;;
13611;SDS011;6877;51.436;6.774;2024-01-15T00:48:22;41.33;;;18.50;;
13611;SDS011;6877;51.436;6.774;2024-01-15T00:50:48;36.70;;;17.98;;
13611;SDS011;6877;51.436;6.774;2024-01-15T00:53:19;39.13;;;17.55;;
13611;SDS011;6877;51.436;6.774;2024-01-15T00:55:48;42.95;;;17.15;;
13611;SDS011;6877;51.436;6.774;2024-01-15T00:58:15;41.50;;;19.65;;
13611;SDS011;6877;51.436;6.774;2024-01-15T01:00:42;43.75;;;19.77;;
13611;SDS011;6877;51.436;6.774;2024-01-15T01:03:13;32.70;;;17.25;;
13611;SDS011;6877;51.436;6.774;2024-01-15T01:05:39;42.97;;;19.67;;
13611;SDS011;6877;51.436;6.774;2024-01-15T01:08:06;38.63;;;18.00;;
13611;SDS011;6877;51.436;6.774;2024-01-15T01:10:37;38.72;;;17.05;;
13611;SDS011;6877;51.436;6.774;2024-01-15T01:13:11;42.70;;;18.25;;
13611;SDS011;6877;51.436;6.774;2024-01-15T01:15:42;43.33;;;17.63;;
13611;SDS011;6877;51.436;6.774;2024-01-15T01:18:09;41.22;;;17.73;;
13611;SDS011;6877;51.436;6.774;2024-01-15T01:20:40;41.97;;;19.02;;
13611;SDS011;6877;51.436;6.774;2024-01-15T01:23:06;46.55;;;20.25;;
13611;SDS011;6877;51.436;6.774;2024-01-15T01:25:33;45.05;;;20.05;;
13611;SDS011;6877;51.436;6.774;2024-01-15T01:27:59;45.10;;;19.25;;
13611;SDS011;6877;51.436;6.774;2024-01-15T01:30:26;43.03;;;18.55;;
13611;SDS011;6877;51.436;6.774;2024-01-15T01:32:53;37.65;;;16.17;;
13611;SDS011;6877;51.436;6.774;2024-01-15T01:35:24;42.78;;;18.13;;
13611;SDS011;6877;51.436;6.774;2024-01-15T01:37:53;43.20;;;20.50;;
13611;SDS011;6877;51.436;6.774;2024-01-15T01:40:20;48.30;;;18.50;;
13611;SDS011;6877;51.436;6.774;2024-01-15T01:42:47;36.42;;;17.95;;
13611;SDS011;6877;51.436;6.774;2024-01-15T01:45:14;40.63;;;17.98;;
13611;SDS011;6877;51.436;6.774;2024-01-15T01:47:46;42.88;;;19.77;;
13611;SDS011;6877;51.436;6.774;2024-01-15T01:50:13;34.40;;;17.30;;
13611;SDS011;6877;51.436;6.774;2024-01-15T01:52:45;44.20;;;18.25;;
13611;SDS011;6877;51.436;6.774;2024-01-15T01:55:17;41.95;;;18.77;;
13611;SDS011;6877;51.436;6.774;2024-01-15T01:57:50;35.97;;;15.90;;
13611;SDS011;6877;51.436;6.774;2024-01-15T02:00:17;36.17;;;17.05;;
13611;SDS011;6877;51.436;6.774;2024-01-15T02:02:44;33.33;;;17.00;;
13611;SDS011;6877;51.436;6.774;2024-01-15T02:05:18;34.30;;;16.35;;
13611;SDS011;6877;51.436;6.774;2024-01-15T02:07:45;38.28;;;15.88;;
13611;SDS011;6877;51.436;6.774;2024-01-15T02:10:17;33.10;;;15.27;;
13611;SDS011;6877;51.436;6.774;2024-01-15T02:12:43;35.33;;;15.60;;
13611;SDS011;6877;51.436;6.774;2024-01-15T02:15:10;32.13;;;14.13;;
13611;SDS011;6877;51.436;6.774;2024-01-15T02:17:56;32.88;;;15.02;;
13611;SDS011;6877;51.436;6.774;2024-01-15T02:20:26;34.95;;;15.35;;
13611;SDS011;6877;51.436;6.774;2024-01-15T02:22:53;30.67;;;14.00;;
13611;SDS011;6877;51.436;6.774;2024-01-15T02:25:19;39.03;;;13.93;;
13611;SDS011;6877;51.436;6.774;2024-01-15T02:27:51;28.50;;;13.00;;
13611;SDS011;6877;51.436;6.774;2024-01-15T02:30:18;27.17;;;13.60;;
13611;SDS011;6877;51.436;6.774;2024-01-15T02:32:44;32.53;;;15.45;;
13611;SDS011;6877;51.436;6.774;2024-01-15T02:35:12;26.33;;;14.15;;
13611;SDS011;6877;51.436;6.774;2024-01-15T02:37:38;31.20;;;15.85;;
13611;SDS011;6877;51.436;6.774;2024-01-15T02:40:05;28.35;;;13.63;;
13611;SDS011;6877;51.436;6.774;2024-01-15T02:42:32;24.40;;;12.10;;
13611;SDS011;6877;51.436;6.774;2024-01-15T02:45:03;32.58;;;14.73;;
13611;SDS011;6877;51.436;6.774;2024-01-15T02:47:31;32.05;;;13.52;;
13611;SDS011;6877;51.436;6.774;2024-01-15T02:50:02;38.50;;;14.52;;
13611;SDS011;6877;51.436;6.774;2024-01-15T02:52:29;27.60;;;12.50;;
13611;SDS011;6877;51.436;6.774;2024-01-15T02:55:01;28.35;;;13.48;;
13611;SDS011;6877;51.436;6.774;2024-01-15T02:57:32;39.80;;;13.05;;
13611;SDS011;6877;51.436;6.774;2024-01-15T03:00:04;28.80;;;12.00;;
13611;SDS011;6877;51.436;6.774;2024-01-15T03:02:31;29.83;;;11.80;;
13611;SDS011;6877;51.436;6.774;2024-01-15T03:04:57;27.13;;;13.18;;
13611;SDS011;6877;51.436;6.774;2024-01-15T03:07:25;31.90;;;12.80;;
13611;SDS011;6877;51.436;6.774;2024-01-15T03:09:52;24.65;;;9.55;;
13611;SDS011;6877;51.436;6.774;2024-01-15T03:12:18;31.65;;;12.70;;
13611;SDS011;6877;51.436;6.774;2024-01-15T03:14:45;21.83;;;9.95;;
13611;SDS011;6877;51.436;6.774;2024-01-15T03:17:16;17.85;;;9.02;;
13611;SDS011;6877;51.436;6.774;2024-01-15T03:19:42;28.23;;;11.43;;
13611;SDS011;6877;51.436;6.774;2024-01-15T03:22:09;29.67;;;8.88;;
13611;SDS011;6877;51.436;6.774;2024-01-15T03:24:46;23.88;;;11.63;;
13611;SDS011;6877;51.436;6.774;2024-01-15T03:27:13;17.25;;;8.85;;
13611;SDS011;6877;51.436;6.774;2024-01-15T03:29:40;19.58;;;10.65;;
13611;SDS011;6877;51.436;6.774;2024-01-15T03:32:09;19.40;;;9.60;;
13611;SDS011;6877;51.436;6.774;2024-01-15T03:34:36;24.05;;;10.00;;
13611;SDS011;6877;51.436;6.774;2024-01-15T03:37:05;17.63;;;9.32;;
13611;SDS011;6877;51.436;6.774;2024-01-15T03:39:36;24.20;;;9.27;;
13611;SDS011;6877;51.436;6.774;2024-01-15T03:42:08;27.85;;;11.23;;
13611;SDS011;6877;51.436;6.774;2024-01-15T03:44:34;26.90;;;11.38;;
13611;SDS011;6877;51.436;6.774;2024-01-15T03:47:01;24.50;;;11.70;;
13611;SDS011;6877;51.436;6.774;2024-01-15T03:49:30;25.48;;;11.25;;
13611;SDS011;6877;51.436;6.774;2024-01-15T03:51:57;22.92;;;10.88;;
13611;SDS011;6877;51.436;6.774;2024-01-15T03:54:23;26.20;;;9.75;;
13611;SDS011;6877;51.436;6.774;2024-01-15T03:56:50;26.38;;;12.10;;
13611;SDS011;6877;51.436;6.774;2024-01-15T03:59:17;27.80;;;12.63;;
13611;SDS011;6877;51.436;6.774;2024-01-15T04:01:49;27.40;;;11.23;;
13611;SDS011;6877;51.436;6.774;2024-01-15T04:04:19;24.70;;;11.18;;
13611;SDS011;6877;51.436;6.774;2024-01-15T04:06:48;31.15;;;12.52;;
13611;SDS011;6877;51.436;6.774;2024-01-15T04:09:14;33.22;;;13.27;;
13611;SDS011;6877;51.436;6.774;2024-01-15T04:11:44;28.58;;;12.60;;
13611;SDS011;6877;51.436;6.774;2024-01-15T04:14:11;24.38;;;12.75;;
13611;SDS011;6877;51.436;6.774;2024-01-15T04:16:37;29.10;;;12.70;;
13611;SDS011;6877;51.436;6.774;2024-01-15T04:19:04;24.13;;;12.85;;
13611;SDS011;6877;51.436;6.774;2024-01-15T04:21:31;33.33;;;13.63;;
13611;SDS011;6877;51.436;6.774;2024-01-15T04:23:57;23.38;;;12.95;;
13611;SDS011;6877;51.436;6.774;2024-01-15T04:26:29;27.60;;;11.85;;
13611;SDS011;6877;51.436;6.774;2024-01-15T04:28:55;30.20;;;12.63;;
13611;SDS011;6877;51.436;6.774;2024-01-15T04:31:24;25.10;;;11.77;;
13611;SDS011;6877;51.436;6.774;2024-01-15T04:33:51;28.85;;;11.85;;
13611;SDS011;6877;51.436;6.774;2024-01-15T04:36:20;23.20;;;10.55;;
13611;SDS011;6877;51.436;6.774;2024-01-15T04:38:46;24.75;;;11.75;;
13611;SDS011;6877;51.436;6.774;2024-01-15T04:41:13;20.40;;;10.25;;
13611;SDS011;6877;51.436;6.774;2024-01-15T04:43:46;26.25;;;10.98;;
13611;SDS011;6877;51.436;6.774;2024-01-15T04:46:12;20.42;;;9.93;;
13611;SDS011;6877;51.436;6.774;2024-01-15T04:48:39;22.70;;;10.35;;
13611;SDS011;6877;51.436;6.774;2024-01-15T04:51:05;23.67;;;10.52;;
13611;SDS011;6877;51.436;6.774;2024-01-15T04:53:35;21.85;;;9.93;;
13611;SDS011;6877;51.436;6.774;2024-01-15T04:56:01;24.60;;;10.88;;
13611;SDS011;6877;51.436;6.774;2024-01-15T04:58:28;26.85;;;11.07;;
13611;SDS011;6877;51.436;6.774;2024-01-15T05:01:00;24.15;;;11.00;;
13611;SDS011;6877;51.436;6.774;2024-01-15T05:03:27;24.67;;;11.18;;
13611;SDS011;6877;51.436;6.774;2024-01-15T05:06:01;27.27;;;11.55;;
13611;SDS011;6877;51.436;6.774;2024-01-15T05:08:27;21.83;;;11.07;;
13611;SDS011;6877;51.436;6.774;2024-01-15T05:10:59;22.02;;;10.68;;
13611;SDS011;6877;51.436;6.774;2024-01-15T05:13:30;23.50;;;10.82;;
13611;SDS011;6877;51.436;6.774;2024-01-15T05:16:02;20.55;;;9.40;;
13611;SDS011;6877;51.436;6.774;2024-01-15T05:18:28;21.42;;;9.68;;
13611;SDS011;6877;51.436;6.774;2024-01-15T05:21:00;22.08;;;11.05;;
13611;SDS011;6877;51.436;6.774;2024-01-15T05:23:26;18.30;;;10.15;;
13611;SDS011;6877;51.436;6.774;2024-01-15T05:25:53;23.10;;;10.80;;
13611;SDS011;6877;51.436;6.774;2024-01-15T05:28:19;23.20;;;11.15;;
13611;SDS011;6877;51.436;6.774;2024-01-15T05:30:51;18.77;;;10.30;;
13611;SDS011;6877;51.436;6.774;2024-01-15T05:33:18;22.92;;;11.20;;
13611;SDS011;6877;51.436;6.774;2024-01-15T05:35:49;22.35;;;9.52;;
13611;SDS011;6877;51.436;6.774;2024-01-15T05:38:21;29.30;;;11.02;;
13611;SDS011;6877;51.436;6.774;2024-01-15T05:40:53;23.73;;;10.63;;
13611;SDS011;6877;51.436;6.774;2024-01-15T05:43:19;16.50;;;9.75;;
13611;SDS011;6877;51.436;6.774;2024-01-15T05:45:51;19.23;;;10.73;;
13611;SDS011;6877;51.436;6.774;2024-01-15T05:48:17;17.35;;;9.23;;
13611;SDS011;6877;51.436;6.774;2024-01-15T05:50:44;25.10;;;10.38;;
13611;SDS011;6877;51.436;6.774;2024-01-15T05:53:15;21.80;;;9.20;;
13611;SDS011;6877;51.436;6.774;2024-01-15T05:55:47;22.67;;;9.52;;
13611;SDS011;6877;51.436;6.774;2024-01-15T05:58:13;17.23;;;8.57;;
13611;SDS011;6877;51.436;6.774;2024-01-15T06:00:40;19.63;;;8.38;;
13611;SDS011;6877;51.436;6.774;2024-01-15T06:03:09;21.75;;;11.05;;
13611;SDS011;6877;51.436;6.774;2024-01-15T06:05:38;15.02;;;9.00;;
13611;SDS011;6877;51.436;6.774;2024-01-15T06:08:04;18.55;;;8.77;;
13611;SDS011;6877;51.436;6.774;2024-01-15T06:10:31;17.88;;;7.45;;
13611;SDS011;6877;51.436;6.774;2024-01-15T06:13:02;13.88;;;7.28;;
13611;SDS011;6877;51.436;6.774;2024-01-15T06:15:34;29.75;;;8.00;;
13611;SDS011;6877;51.436;6.774;2024-01-15T06:18:00;12.20;;;6.07;;
13611;SDS011;6877;51.436;6.774;2024-01-15T06:20:32;14.73;;;6.70;;
13611;SDS011;6877;51.436;6.774;2024-01-15T06:22:59;11.85;;;6.15;;
13611;SDS011;6877;51.436;6.774;2024-01-15T06:25:30;15.68;;;6.03;;
13611;SDS011;6877;51.436;6.774;2024-01-15T06:27:57;16.00;;;6.97;;
13611;SDS011;6877;51.436;6.774;2024-01-15T06:30:23;12.32;;;6.72;;
13611;SDS011;6877;51.436;6.774;2024-01-15T06:32:50;11.10;;;4.72;;
13611;SDS011;6877;51.436;6.774;2024-01-15T06:35:16;12.25;;;5.35;;
13611;SDS011;6877;51.436;6.774;2024-01-15T06:37:48;17.00;;;4.95;;
13611;SDS011;6877;51.436;6.774;2024-01-15T06:40:14;10.55;;;5.57;;
13611;SDS011;6877;51.436;6.774;2024-01-15T06:42:41;8.05;;;4.75;;
13611;SDS011;6877;51.436;6.774;2024-01-15T06:45:12;7.43;;;4.43;;
13611;SDS011;6877;51.436;6.774;2024-01-15T06:47:43;8.65;;;4.15;;
13611;SDS011;6877;51.436;6.774;2024-01-15T06:50:10;10.80;;;4.50;;
13611;SDS011;6877;51.436;6.774;2024-01-15T06:52:36;26.30;;;5.25;;
13611;SDS011;6877;51.436;6.774;2024-01-15T06:55:03;14.00;;;4.30;;
13611;SDS011;6877;51.436;6.774;2024-01-15T06:57:30;7.63;;;3.33;;
13611;SDS011;6877;51.436;6.774;2024-01-15T06:59:56;5.97;;;3.67;;
13611;SDS011;6877;51.436;6.774;2024-01-15T07:02:23;7.28;;;3.60;;
13611;SDS011;6877;51.436;6.774;2024-01-15T07:04:54;6.28;;;3.20;;
13611;SDS011;6877;51.436;6.774;2024-01-15T07:07:20;8.13;;;4.13;;
13611;SDS011;6877;51.436;6.774;2024-01-15T07:09:47;7.72;;;3.67;;
13611;SDS011;6877;51.436;6.774;2024-01-15T07:12:18;6.85;;;4.00;;
13611;SDS011;6877;51.436;6.774;2024-01-15T07:14:50;8.38;;;3.95;;
13611;SDS011;6877;51.436;6.774;2024-01-15T07:17:16;6.30;;;5.25;;
13611;SDS011;6877;51.436;6.774;2024-01-15T07:19:48;5.90;;;4.15;;
13611;SDS011;6877;51.436;6.774;2024-01-15T07:22:19;10.02;;;4.47;;
13611;SDS011;6877;51.436;6.774;2024-01-15T07:24:46;6.38;;;3.90;;
13611;SDS011;6877;51.436;6.774;2024-01-15T07:27:17;6.15;;;3.58;;
13611;SDS011;6877;51.436;6.774;2024-01-15T07:29:48;9.23;;;5.00;;
13611;SDS011;6877;51.436;6.774;2024-01-15T07:32:15;12.48;;;4.82;;
13611;SDS011;6877;51.436;6.774;2024-01-15T07:34:47;12.80;;;4.55;;
13611;SDS011;6877;51.436;6.774;2024-01-15T07:37:13;17.05;;;6.30;;
13611;SDS011;6877;51.436;6.774;2024-01-15T07:39:45;13.60;;;7.30;;
13611;SDS011;6877;51.436;6.774;2024-01-15T07:42:16;16.05;;;6.57;;
13611;SDS011;6877;51.436;6.774;2024-01-15T07:44:42;15.45;;;7.88;;
13611;SDS011;6877;51.436;6.774;2024-01-15T07:47:09;21.80;;;9.25;;
13611;SDS011;6877;51.436;6.774;2024-01-15T07:49:35;18.40;;;8.70;;
13611;SDS011;6877;51.436;6.774;2024-01-15T07:52:02;20.13;;;10.02;;
13611;SDS011;6877;51.436;6.774;2024-01-15T07:54:29;17.95;;;9.20;;
13611;SDS011;6877;51.436;6.774;2024-01-15T07:57:01;18.10;;;10.32;;
13611;SDS011;6877;51.436;6.774;2024-01-15T07:59:31;25.38;;;10.93;;
13611;SDS011;6877;51.436;6.774;2024-01-15T08:01:58;23.02;;;11.43;;
13611;SDS011;6877;51.436;6.774;2024-01-15T08:04:30;29.92;;;11.57;;
13611;SDS011;6877;51.436;6.774;2024-01-15T08:06:56;21.27;;;11.65;;
13611;SDS011;6877;51.436;6.774;2024-01-15T08:09:23;19.25;;;9.32;;
13611;SDS011;6877;51.436;6.774;2024-01-15T08:11:55;24.65;;;10.93;;
13611;SDS011;6877;51.436;6.774;2024-01-15T08:14:23;21.95;;;11.40;;
13611;SDS011;6877;51.436;6.774;2024-01-15T08:16:49;24.10;;;11.93;;
13611;SDS011;6877;51.436;6.774;2024-01-15T08:19:16;25.08;;;11.75;;
13611;SDS011;6877;51.436;6.774;2024-01-15T08:21:47;15.93;;;10.77;;
13611;SDS011;6877;51.436;6.774;2024-01-15T08:24:14;22.73;;;11.00;;
13611;SDS011;6877;51.436;6.774;2024-01-15T08:26:41;20.08;;;11.07;;
13611;SDS011;6877;51.436;6.774;2024-01-15T08:29:07;23.77;;;10.98;;
13611;SDS011;6877;51.436;6.774;2024-01-15T08:31:34;22.55;;;11.38;;
13611;SDS011;6877;51.436;6.774;2024-01-15T08:34:00;23.38;;;11.00;;
13611;SDS011;6877;51.436;6.774;2024-01-15T08:36:28;21.65;;;9.57;;
13611;SDS011;6877;51.436;6.774;2024-01-15T08:38:57;26.65;;;10.43;;
13611;SDS011;6877;51.436;6.774;2024-01-15T08:41:24;19.27;;;10.07;;
13611;SDS011;6877;51.436;6.774;2024-01-15T08:43:51;20.67;;;9.43;;
13611;SDS011;6877;51.436;6.774;2024-01-15T08:46:19;17.55;;;10.45;;
13611;SDS011;6877;51.436;6.774;2024-01-15T08:48:45;20.35;;;11.02;;
13611;SDS011;6877;51.436;6.774;2024-01-15T08:51:12;16.88;;;9.93;;
13611;SDS011;6877;51.436;6.774;2024-01-15T08:53:39;20.45;;;11.23;;
13611;SDS011;6877;51.436;6.774;2024-01-15T08:56:06;22.48;;;11.35;;
13611;SDS011;6877;51.436;6.774;2024-01-15T08:58:32;19.75;;;9.07;;
13611;SDS011;6877;51.436;6.774;2024-01-15T09:00:59;19.38;;;9.98;;
13611;SDS011;6877;51.436;6.774;2024-01-15T09:03:26;20.98;;;12.57;;
13611;SDS011;6877;51.436;6.774;2024-01-15T09:05:52;18.90;;;8.95;;
13611;SDS011;6877;51.436;6.774;2024-01-15T09:08:24;19.13;;;9.43;;
13611;SDS011;6877;51.436;6.774;2024-01-15T09:10:55;17.60;;;10.10;;
13611;SDS011;6877;51.436;6.774;2024-01-15T09:13:22;16.88;;;10.13;;
13611;SDS011;6877;51.436;6.774;2024-01-15T09:15:53;19.67;;;8.82;;
13611;SDS011;6877;51.436;6.774;2024-01-15T09:18:20;16.50;;;8.30;;
13611;SDS011;6877;51.436;6.774;2024-01-15T09:20:46;17.35;;;8.85;;
13611;SDS011;6877;51.436;6.774;2024-01-15T09:23:18;18.85;;;8.27;;
13611;SDS011;6877;51.436;6.774;2024-01-15T09:25:49;18.02;;;9.40;;
13611;SDS011;6877;51.436;6.774;2024-01-15T09:28:15;16.90;;;7.57;;
13611;SDS011;6877;51.436;6.774;2024-01-15T09:30:42;18.83;;;7.53;;
13611;SDS011;6877;51.436;6.774;2024-01-15T09:33:13;14.57;;;7.97;;
13611;SDS011;6877;51.436;6.774;2024-01-15T09:35:46;14.32;;;7.75;;
13611;SDS011;6877;51.436;6.774;2024-01-15T09:38:13;14.43;;;7.18;;
13611;SDS011;6877;51.436;6.774;2024-01-15T09:40:39;16.55;;;8.43;;
13611;SDS011;6877;51.436;6.774;2024-01-15T09:43:14;15.98;;;6.78;;
13611;SDS011;6877;51.436;6.774;2024-01-15T09:45:42;12.50;;;6.47;;
13611;SDS011;6877;51.436;6.774;2024-01-15T09:48:14;14.50;;;6.85;;
13611;SDS011;6877;51.436;6.774;2024-01-15T09:50:46;13.93;;;5.85;;
13611;SDS011;6877;51.436;6.774;2024-01-15T09:53:13;11.68;;;6.55;;
13611;SDS011;6877;51.436;6.774;2024-01-15T09:55:41;11.43;;;5.43;;
13611;SDS011;6877;51.436;6.774;2024-01-15T09:58:08;13.25;;;6.03;;
13611;SDS011;6877;51.436;6.774;2024-01-15T10:00:37;15.95;;;5.93;;
13611;SDS011;6877;51.436;6.774;2024-01-15T10:03:07;6.88;;;4.72;;
13611;SDS011;6877;51.436;6.774;2024-01-15T10:05:41;8.95;;;5.05;;
13611;SDS011;6877;51.436;6.774;2024-01-15T10:08:14;11.65;;;5.45;;
13611;SDS011;6877;51.436;6.774;2024-01-15T10:10:45;12.38;;;6.00;;
13611;SDS011;6877;51.436;6.774;2024-01-15T10:13:12;10.35;;;5.60;;
13611;SDS011;6877;51.436;6.774;2024-01-15T10:15:45;10.30;;;5.40;;
13611;SDS011;6877;51.436;6.774;2024-01-15T10:18:13;9.55;;;4.90;;
13611;SDS011;6877;51.436;6.774;2024-01-15T10:20:42;11.68;;;4.72;;
13611;SDS011;6877;51.436;6.774;2024-01-15T10:23:08;7.10;;;4.78;;
13611;SDS011;6877;51.436;6.774;2024-01-15T10:25:35;9.93;;;5.50;;
13611;SDS011;6877;51.436;6.774;2024-01-15T10:28:06;8.48;;;5.47;;
13611;SDS011;6877;51.436;6.774;2024-01-15T10:30:33;8.77;;;4.55;;
13611;SDS011;6877;51.436;6.774;2024-01-15T10:33:01;7.90;;;4.35;;
13611;SDS011;6877;51.436;6.774;2024-01-15T10:35:29;8.15;;;4.88;;
13611;SDS011;6877;51.436;6.774;2024-01-15T10:37:56;6.90;;;4.57;;
13611;SDS011;6877;51.436;6.774;2024-01-15T10:40:28;10.88;;;5.15;;
13611;SDS011;6877;51.436;6.774;2024-01-15T10:42:55;8.93;;;5.03;;
13611;SDS011;6877;51.436;6.774;2024-01-15T10:45:22;8.40;;;5.13;;
13611;SDS011;6877;51.436;6.774;2024-01-15T10:47:48;8.63;;;4.68;;
13611;SDS011;6877;51.436;6.774;2024-01-15T10:50:15;12.45;;;5.40;;
13611;SDS011;6877;51.436;6.774;2024-01-15T10:52:47;7.93;;;5.28;;
13611;SDS011;6877;51.436;6.774;2024-01-15T10:55:14;10.82;;;5.65;;
13611;SDS011;6877;51.436;6.774;2024-01-15T10:57:40;10.10;;;5.00;;
13611;SDS011;6877;51.436;6.774;2024-01-15T11:00:07;6.22;;;4.35;;
13611;SDS011;6877;51.436;6.774;2024-01-15T11:02:35;10.38;;;5.00;;
13611;SDS011;6877;51.436;6.774;2024-01-15T11:05:08;6.65;;;4.15;;
13611;SDS011;6877;51.436;6.774;2024-01-15T11:07:40;9.25;;;4.35;;
13611;SDS011;6877;51.436;6.774;2024-01-15T11:10:07;8.20;;;4.55;;
13611;SDS011;6877;51.436;6.774;2024-01-15T11:12:36;13.57;;;5.07;;
13611;SDS011;6877;51.436;6.774;2024-01-15T11:15:07;9.07;;;5.13;;
13611;SDS011;6877;51.436;6.774;2024-01-15T11:17:58;11.20;;;5.38;;
13611;SDS011;6877;51.436;6.774;2024-01-15T11:20:31;6.22;;;4.38;;
13611;SDS011;6877;51.436;6.774;2024-01-15T11:22:58;11.10;;;4.90;;
13611;SDS011;6877;51.436;6.774;2024-01-15T11:25:25;9.93;;;5.20;;
13611;SDS011;6877;51.436;6.774;2024-01-15T11:28:01;10.80;;;5.55;;
13611;SDS011;6877;51.436;6.774;2024-01-15T11:30:28;8.18;;;5.13;;
13611;SDS011;6877;51.436;6.774;2024-01-15T11:32:54;8.38;;;5.15;;
13611;SDS011;6877;51.436;6.774;2024-01-15T11:35:21;8.75;;;4.80;;
13611;SDS011;6877;51.436;6.774;2024-01-15T11:40:17;8.60;;;4.85;;
13611;SDS011;6877;51.436;6.774;2024-01-15T11:42:45;8.40;;;5.28;;
13611;SDS011;6877;51.436;6.774;2024-01-15T11:45:12;9.70;;;4.93;;
13611;SDS011;6877;51.436;6.774;2024-01-15T11:50:25;6.60;;;4.25;;
13611;SDS011;6877;51.436;6.774;2024-01-15T11:53:04;7.50;;;4.75;;
13611;SDS011;6877;51.436;6.774;2024-01-15T11:55:42;8.60;;;4.18;;
13611;SDS011;6877;51.436;6.774;2024-01-15T11:58:15;8.40;;;4.65;;
13611;SDS011;6877;51.436;6.774;2024-01-15T12:00:43;8.55;;;4.03;;
13611;SDS011;6877;51.436;6.774;2024-01-15T12:03:11;7.78;;;4.28;;
13611;SDS011;6877;51.436;6.774;2024-01-15T12:05:37;5.50;;;3.53;;
13611;SDS011;6877;51.436;6.774;2024-01-15T12:08:05;5.15;;;3.92;;
13611;SDS011;6877;51.436;6.774;2024-01-15T12:10:37;4.95;;;3.30;;
13611;SDS011;6877;51.436;6.774;2024-01-15T12:15:38;12.80;;;3.85;;
13611;SDS011;6877;51.436;6.774;2024-01-15T12:18:09;13.60;;;4.20;;
13611;SDS011;6877;51.436;6.774;2024-01-15T12:20:37;7.10;;;3.92;;
13611;SDS011;6877;51.436;6.774;2024-01-15T12:23:05;9.13;;;4.28;;
13611;SDS011;6877;51.436;6.774;2024-01-15T12:25:32;6.60;;;4.10;;
13611;SDS011;6877;51.436;6.774;2024-01-15T12:28:00;5.20;;;3.35;;
13611;SDS011;6877;51.436;6.774;2024-01-15T12:30:28;4.78;;;3.58;;
13611;SDS011;6877;51.436;6.774;2024-01-15T12:32:55;8.60;;;3.90;;
13611;SDS011;6877;51.436;6.774;2024-01-15T12:35:23;6.82;;;4.10;;
13611;SDS011;6877;51.436;6.774;2024-01-15T12:37:50;6.97;;;4.03;;
13611;SDS011;6877;51.436;6.774;2024-01-15T12:40:20;4.03;;;3.47;;
13611;SDS011;6877;51.436;6.774;2024-01-15T12:42:47;6.43;;;3.08;;
13611;SDS011;6877;51.436;6.774;2024-01-15T12:45:14;8.40;;;3.83;;
13611;SDS011;6877;51.436;6.774;2024-01-15T12:47:41;5.35;;;3.40;;
13611;SDS011;6877;51.436;6.774;2024-01-15T12:50:08;8.95;;;3.83;;
13611;SDS011;6877;51.436;6.774;2024-01-15T12:52:36;6.20;;;3.65;;
13611;SDS011;6877;51.436;6.774;2024-01-15T12:55:05;6.95;;;3.38;;
13611;SDS011;6877;51.436;6.774;2024-01-15T12:57:34;5.53;;;3.83;;
13611;SDS011;6877;51.436;6.774;2024-01-15T13:00:00;6.47;;;4.45;;
13611;SDS011;6877;51.436;6.774;2024-01-15T13:02:27;9.20;;;3.67;;
13611;SDS011;6877;51.436;6.774;2024-01-15T13:04:53;7.25;;;3.65;;
13611;SDS011;6877;51.436;6.774;2024-01-15T13:07:26;7.43;;;3.72;;
13611;SDS011;6877;51.436;6.774;2024-01-15T13:09:53;14.80;;;4.72;;
13611;SDS011;6877;51.436;6.774;2024-01-15T13:12:20;16.85;;;4.00;;
13611;SDS011;6877;51.436;6.774;2024-01-15T13:14:46;6.25;;;4.20;;
13611;SDS011;6877;51.436;6.774;2024-01-15T13:17:18;5.78;;;3.47;;
13611;SDS011;6877;51.436;6.774;2024-01-15T13:19:46;8.48;;;3.70;;
13611;SDS011;6877;51.436;6.774;2024-01-15T13:22:13;6.60;;;4.35;;
13611;SDS011;6877;51.436;6.774;2024-01-15T13:24:40;7.80;;;4.05;;
13611;SDS011;6877;51.436;6.774;2024-01-15T13:27:06;8.05;;;4.65;;
13611;SDS011;6877;51.436;6.774;2024-01-15T13:29:36;7.50;;;4.35;;
13611;SDS011;6877;51.436;6.774;2024-01-15T13:32:03;9.50;;;4.90;;
13611;SDS011;6877;51.436;6.774;2024-01-15T13:34:31;14.07;;;4.53;;
13611;SDS011;6877;51.436;6.774;2024-01-15T13:36:57;8.00;;;4.78;;
13611;SDS011;6877;51.436;6.774;2024-01-15T13:39:24;7.47;;;5.38;;
13611;SDS011;6877;51.436;6.774;2024-01-15T13:41:50;10.02;;;4.78;;
13611;SDS011;6877;51.436;6.774;2024-01-15T13:44:22;4.65;;;3.80;;
13611;SDS011;6877;51.436;6.774;2024-01-15T13:46:54;8.48;;;4.70;;
13611;SDS011;6877;51.436;6.774;2024-01-15T13:49:20;8.23;;;4.32;;
13611;SDS011;6877;51.436;6.774;2024-01-15T13:51:46;5.85;;;5.32;;
13611;SDS011;6877;51.436;6.774;2024-01-15T13:54:13;5.53;;;3.60;;
13611;SDS011;6877;51.436;6.774;2024-01-15T13:56:39;4.07;;;3.58;;
13611;SDS011;6877;51.436;6.774;2024-01-15T13:59:11;7.68;;;3.42;;
13611;SDS011;6877;51.436;6.774;2024-01-15T14:01:42;4.38;;;2.92;;
13611;SDS011;6877;51.436;6.774;2024-01-15T14:04:09;6.35;;;3.53;;
13611;SDS011;6877;51.436;6.774;2024-01-15T14:06:35;5.93;;;3.25;;
13611;SDS011;6877;51.436;6.774;2024-01-15T14:09:02;4.03;;;3.63;;
13611;SDS011;6877;51.436;6.774;2024-01-15T14:11:31;4.50;;;2.90;;
13611;SDS011;6877;51.436;6.774;2024-01-15T14:13:57;3.63;;;3.03;;
13611;SDS011;6877;51.436;6.774;2024-01-15T14:16:24;6.18;;;2.85;;
13611;SDS011;6877;51.436;6.774;2024-01-15T14:18:50;10.30;;;2.95;;
13611;SDS011;6877;51.436;6.774;2024-01-15T14:21:17;2.67;;;2.45;;
13611;SDS011;6877;51.436;6.774;2024-01-15T14:23:49;7.35;;;3.47;;
13611;SDS011;6877;51.436;6.774;2024-01-15T14:26:21;3.42;;;2.67;;
13611;SDS011;6877;51.436;6.774;2024-01-15T14:28:52;4.45;;;2.50;;
13611;SDS011;6877;51.436;6.774;2024-01-15T14:31:22;8.93;;;2.97;;
13611;SDS011;6877;51.436;6.774;2024-01-15T14:33:51;4.82;;;4.32;;
13611;SDS011;6877;51.436;6.774;2024-01-15T14:36:17;3.65;;;2.60;;
13611;SDS011;6877;51.436;6.774;2024-01-15T14:38:44;4.18;;;2.88;;
13611;SDS011;6877;51.436;6.774;2024-01-15T14:41:11;9.88;;;3.22;;
13611;SDS011;6877;51.436;6.774;2024-01-15T14:43:42;5.85;;;2.75;;
13611;SDS011;6877;51.436;6.774;2024-01-15T14:46:12;3.60;;;3.30;;
13611;SDS011;6877;51.436;6.774;2024-01-15T14:48:38;6.25;;;3.17;;
13611;SDS011;6877;51.436;6.774;2024-01-15T14:51:09;5.32;;;2.88;;
13611;SDS011;6877;51.436;6.774;2024-01-15T14:53:36;3.65;;;2.88;;
13611;SDS011;6877;51.436;6.774;2024-01-15T14:56:02;5.63;;;3.85;;
13611;SDS011;6877;51.436;6.774;2024-01-15T14:58:29;4.47;;;2.85;;
13611;SDS011;6877;51.436;6.774;2024-01-15T15:00:55;6.97;;;4.03;;